createdAt,value
2018-01-10T00:00:05.774Z,90.60
2018-01-10T00:02:34.066Z,90.50
2018-01-10T00:05:02.319Z,90.50
2018-01-10T00:07:30.636Z,90.50
2018-01-10T00:09:58.878Z,90.40
2018-01-10T00:12:27.874Z,90.50
2018-01-10T00:14:56.997Z,90.70
2018-01-10T00:17:25.982Z,90.90
2018-01-10T00:19:54.209Z,90.80
2018-01-10T00:22:22.622Z,90.80
2018-01-10T00:24:51.620Z,91.10
2018-01-10T00:27:19.849Z,91.10
2018-01-10T00:29:48.152Z,90.80
2018-01-10T00:32:16.434Z,90.60
2018-01-10T00:34:44.660Z,90.80
2018-01-10T00:37:12.906Z,90.70
2018-01-10T00:39:41.138Z,90.80
2018-01-10T00:42:09.422Z,90.80
2018-01-10T00:44:37.670Z,90.60
2018-01-10T00:47:05.890Z,90.60
2018-01-10T00:49:34.882Z,90.50
2018-01-10T00:52:03.946Z,90.40
2018-01-10T00:54:32.187Z,90.40
2018-01-10T00:57:00.414Z,90.50
2018-01-10T00:59:29.445Z,90.40
2018-01-10T01:01:58.006Z,90.40
2018-01-10T01:04:27.014Z,90.80
2018-01-10T01:06:56.032Z,90.90
2018-01-10T01:09:24.273Z,90.90
2018-01-10T01:11:53.261Z,91.10
2018-01-10T01:14:22.318Z,91.10
2018-01-10T01:16:50.607Z,91.10
2018-01-10T01:19:18.841Z,90.90
2018-01-10T01:21:47.142Z,91.00
2018-01-10T01:24:15.371Z,91.40
2018-01-10T01:26:44.385Z,91.30
2018-01-10T01:29:13.417Z,91.30
2018-01-10T01:31:41.634Z,91.30
2018-01-10T01:34:10.618Z,91.10
2018-01-10T01:36:39.750Z,91.10
2018-01-10T01:39:08.746Z,91.00
2018-01-10T01:41:37.014Z,91.00
2018-01-10T01:44:05.298Z,90.90
2018-01-10T01:46:33.533Z,90.80
2018-01-10T01:49:02.570Z,91.00
2018-01-10T01:51:30.814Z,91.00
2018-01-10T01:53:59.866Z,91.20
2018-01-10T01:56:28.263Z,91.20
2018-01-10T01:58:56.538Z,91.20
2018-01-10T02:01:24.783Z,91.00
2018-01-10T02:03:53.100Z,90.70
2018-01-10T02:06:21.368Z,90.60
2018-01-10T02:08:49.659Z,90.60
2018-01-10T02:11:17.886Z,90.60
2018-01-10T02:13:46.164Z,90.70
2018-01-10T02:16:14.397Z,91.10
2018-01-10T02:18:43.429Z,91.00
2018-01-10T02:21:11.747Z,91.00
2018-01-10T02:23:39.983Z,91.30
2018-01-10T02:26:08.229Z,91.30
2018-01-10T02:28:37.329Z,91.20
2018-01-10T02:31:05.736Z,91.30
2018-01-10T02:33:33.965Z,91.00
2018-01-10T02:36:02.206Z,90.80
2018-01-10T02:38:30.582Z,90.70
2018-01-10T02:40:58.839Z,90.80
2018-01-10T02:43:29.551Z,90.80
2018-01-10T02:45:58.535Z,91.00
2018-01-10T02:48:27.542Z,90.90
2018-01-10T02:50:55.796Z,90.90
2018-01-10T02:53:24.030Z,90.90
2018-01-10T02:55:52.252Z,90.80
2018-01-10T02:58:21.330Z,90.60
2018-01-10T03:00:50.328Z,90.60
2018-01-10T03:03:18.664Z,90.60
2018-01-10T03:05:46.921Z,90.70
2018-01-10T03:08:15.214Z,90.70
2018-01-10T03:10:43.490Z,90.70
2018-01-10T03:13:11.771Z,90.90
2018-01-10T03:15:40.046Z,90.80
2018-01-10T03:18:08.299Z,90.90
2018-01-10T03:20:36.619Z,90.90
2018-01-10T03:23:04.850Z,91.10
2018-01-10T03:25:33.155Z,90.90
2018-01-10T03:28:01.553Z,90.80
2018-01-10T03:30:29.848Z,91.00
2018-01-10T03:32:58.127Z,91.00
2018-01-10T03:35:27.154Z,91.00
2018-01-10T03:37:55.435Z,91.00
2018-01-10T03:40:24.405Z,90.70
2018-01-10T03:42:53.469Z,90.60
2018-01-10T03:45:21.712Z,90.60
2018-01-10T03:47:49.957Z,90.60
2018-01-10T03:50:19.038Z,90.70
2018-01-10T03:52:48.051Z,90.50
2018-01-10T03:55:16.348Z,90.50
2018-01-10T03:57:44.627Z,90.50
2018-01-10T04:00:12.856Z,90.60
2018-01-10T04:02:41.860Z,90.80
2018-01-10T04:05:10.914Z,90.80
2018-01-10T04:07:39.187Z,90.80
2018-01-10T04:10:07.445Z,90.60
2018-01-10T04:12:36.831Z,90.50
2018-01-10T04:15:05.058Z,90.50
2018-01-10T04:17:33.301Z,90.30
2018-01-10T04:20:01.556Z,90.20
2018-01-10T04:22:29.845Z,90.20
2018-01-10T04:24:58.071Z,90.00
2018-01-10T04:27:26.352Z,90.20
2018-01-10T04:29:54.578Z,90.30
2018-01-10T04:32:22.807Z,90.40
2018-01-10T04:34:51.866Z,90.30
2018-01-10T04:37:20.107Z,90.30
2018-01-10T04:39:48.336Z,90.20
2018-01-10T04:42:17.952Z,90.30
2018-01-10T04:44:46.230Z,90.20
2018-01-10T04:47:15.230Z,90.30
2018-01-10T04:49:44.238Z,90.30
2018-01-10T04:52:12.474Z,90.20
2018-01-10T04:54:40.736Z,90.40
2018-01-10T04:57:09.091Z,90.50
2018-01-10T04:59:38.107Z,90.60
2018-01-10T05:02:06.322Z,90.60
2018-01-10T05:04:35.334Z,90.60
2018-01-10T05:07:03.830Z,90.60
2018-01-10T05:09:32.049Z,90.60
2018-01-10T05:12:00.353Z,90.60
2018-01-10T05:14:29.370Z,90.70
2018-01-10T05:16:58.379Z,90.80
2018-01-10T05:19:26.695Z,90.80
2018-01-10T05:21:54.973Z,90.90
2018-01-10T05:24:23.210Z,91.00
2018-01-10T05:26:51.521Z,90.90
2018-01-10T05:29:19.767Z,90.80
2018-01-10T05:31:48.331Z,90.90
2018-01-10T05:34:17.592Z,91.00
2018-01-10T05:36:45.814Z,90.80
2018-01-10T05:39:14.042Z,90.90
2018-01-10T05:41:43.095Z,90.70
2018-01-10T05:44:11.406Z,90.80
2018-01-10T05:46:39.742Z,91.10
2018-01-10T05:49:08.017Z,91.20
2018-01-10T05:51:36.260Z,91.10
2018-01-10T05:54:04.525Z,91.00
2018-01-10T05:56:33.567Z,90.90
2018-01-10T05:59:01.827Z,90.90
2018-01-10T06:01:30.210Z,90.70
2018-01-10T06:03:58.506Z,90.70
2018-01-10T06:06:26.741Z,90.80
2018-01-10T06:08:55.757Z,90.90
2018-01-10T06:11:23.993Z,90.90
2018-01-10T06:13:53.034Z,91.00
2018-01-10T06:16:21.262Z,91.00
2018-01-10T06:18:50.291Z,91.00
2018-01-10T06:21:18.544Z,91.00
2018-01-10T06:23:47.582Z,91.10
2018-01-10T06:26:15.870Z,91.00
2018-01-10T06:28:44.104Z,91.10
2018-01-10T06:31:12.354Z,91.20
2018-01-10T06:33:41.378Z,91.20
2018-01-10T06:36:09.631Z,91.30
2018-01-10T06:38:37.904Z,91.20
2018-01-10T06:41:07.039Z,91.20
2018-01-10T06:43:35.302Z,91.20
2018-01-10T06:46:04.776Z,91.20
2018-01-10T06:48:33.150Z,91.10
2018-01-10T06:51:01.373Z,91.10
2018-01-10T06:53:29.630Z,91.40
2018-01-10T06:55:57.874Z,91.20
2018-01-10T06:58:26.155Z,91.20
2018-01-10T07:00:54.360Z,91.20
2018-01-10T07:03:22.662Z,91.20
2018-01-10T07:05:50.908Z,91.20
2018-01-10T07:08:19.953Z,91.30
2018-01-10T07:10:48.257Z,91.30
2018-01-10T07:13:16.553Z,91.20
2018-01-10T07:15:44.754Z,91.30
2018-01-10T07:18:13.063Z,91.20
2018-01-10T07:20:41.364Z,91.30
2018-01-10T07:23:10.422Z,91.40
2018-01-10T07:25:38.680Z,91.40
2018-01-10T07:28:07.260Z,91.30
2018-01-10T07:30:35.535Z,91.30
2018-01-10T07:33:03.816Z,91.20
2018-01-10T07:35:32.066Z,91.00
2018-01-10T07:38:01.099Z,91.10
2018-01-10T07:40:29.375Z,91.10
2018-01-10T07:42:57.615Z,91.00
2018-01-10T07:48:11.017Z,90.80
2018-01-10T07:50:39.230Z,90.80
2018-01-10T07:53:09.134Z,91.10
2018-01-10T07:55:37.432Z,91.10
2018-01-10T07:58:05.650Z,90.90
2018-01-10T08:00:33.916Z,90.60
2018-01-10T08:03:02.200Z,90.60
2018-01-10T08:05:30.455Z,90.60
2018-01-10T08:07:58.758Z,90.50
2018-01-10T08:10:27.226Z,90.10
2018-01-10T08:12:55.491Z,90.20
2018-01-10T08:15:23.739Z,90.10
2018-01-10T08:17:52.882Z,90.10
2018-01-10T08:20:21.139Z,90.10
2018-01-10T08:22:49.609Z,89.20
2018-01-10T08:25:17.897Z,89.30
2018-01-10T08:27:46.141Z,89.80
2018-01-10T08:30:15.138Z,90.00
2018-01-10T08:32:44.232Z,89.30
2018-01-10T08:35:13.248Z,89.00
2018-01-10T08:37:41.485Z,89.00
2018-01-10T08:40:10.538Z,89.60
2018-01-10T08:42:38.792Z,89.60
2018-01-10T08:45:07.089Z,89.50
2018-01-10T08:47:35.614Z,89.60
2018-01-10T08:50:04.706Z,88.80
2018-01-10T08:52:32.984Z,88.80
2018-01-10T08:55:01.265Z,89.20
2018-01-10T08:57:29.577Z,89.40
2018-01-10T08:59:58.602Z,88.50
2018-01-10T09:02:26.907Z,88.60
2018-01-10T09:04:55.150Z,89.20
2018-01-10T09:07:23.446Z,89.80
2018-01-10T09:09:51.762Z,89.30
2018-01-10T09:12:20.766Z,89.00
2018-01-10T09:14:49.025Z,89.10
2018-01-10T09:17:18.142Z,88.40
2018-01-10T09:19:46.371Z,88.50
2018-01-10T09:22:14.602Z,87.30
2018-01-10T09:24:42.948Z,86.90
2018-01-10T09:27:11.978Z,85.80
2018-01-10T09:29:40.366Z,85.80
2018-01-10T09:32:08.828Z,85.00
2018-01-10T09:34:37.142Z,83.90
2018-01-10T09:37:05.411Z,82.30
2018-01-10T09:39:34.996Z,82.50
2018-01-10T09:42:03.214Z,83.40
2018-01-10T09:44:31.446Z,81.40
2018-01-10T09:46:59.718Z,83.30
2018-01-10T09:49:27.977Z,82.10
2018-01-10T09:51:57.064Z,74.60
2018-01-10T09:54:25.313Z,74.60
2018-01-10T09:56:53.554Z,72.60
2018-01-10T09:59:21.892Z,69.40
2018-01-10T10:01:50.329Z,66.00
2018-01-10T10:04:18.570Z,65.00
2018-01-10T10:06:46.891Z,63.20
2018-01-10T10:09:15.222Z,64.30
2018-01-10T10:11:43.477Z,61.80
2018-01-10T10:14:12.503Z,57.80
2018-01-10T10:16:40.764Z,57.70
2018-01-10T10:19:09.034Z,55.60
2018-01-10T10:21:37.281Z,57.40
2018-01-10T10:24:05.573Z,54.00
2018-01-10T10:26:33.862Z,54.30
2018-01-10T10:29:02.092Z,57.40
2018-01-10T10:31:30.374Z,54.50
2018-01-10T10:33:58.607Z,53.80
2018-01-10T10:36:26.838Z,51.00
2018-01-10T10:38:55.110Z,49.20
2018-01-10T10:41:23.334Z,51.90
2018-01-10T10:43:51.582Z,51.80
2018-01-10T10:46:20.831Z,52.70
2018-01-10T10:48:49.072Z,52.70
2018-01-10T10:51:17.307Z,51.40
2018-01-10T10:53:45.627Z,49.30
2018-01-10T10:56:14.627Z,47.50
2018-01-10T10:58:42.854Z,47.50
2018-01-10T11:01:11.158Z,47.20
2018-01-10T11:03:40.175Z,48.30
2018-01-10T11:06:08.478Z,48.20
2018-01-10T11:08:36.862Z,49.50
2018-01-10T11:11:05.131Z,52.60
2018-01-10T11:13:33.356Z,53.70
2018-01-10T11:16:02.382Z,50.30
2018-01-10T11:18:30.649Z,50.30
2018-01-10T11:20:58.889Z,51.10
2018-01-10T11:23:27.257Z,50.60
2018-01-10T11:25:55.466Z,55.80
2018-01-10T11:28:27.613Z,59.20
2018-01-10T11:30:55.942Z,62.80
2018-01-10T11:33:24.220Z,69.00
2018-01-10T11:35:52.458Z,70.40
2018-01-10T11:38:20.771Z,72.40
2018-01-10T11:40:48.998Z,70.10
2018-01-10T11:43:18.005Z,65.10
2018-01-10T11:45:47.040Z,69.90
2018-01-10T11:48:15.297Z,69.90
2018-01-10T11:50:43.586Z,70.60
2018-01-10T11:53:13.502Z,69.60
2018-01-10T11:55:41.823Z,70.00
2018-01-10T11:58:10.112Z,68.80
2018-01-10T12:00:38.410Z,67.60
2018-01-10T12:03:06.685Z,66.30
2018-01-10T12:05:34.899Z,65.20
2018-01-10T12:08:03.194Z,67.90
2018-01-10T12:10:31.433Z,67.30
2018-01-10T12:12:59.729Z,67.00
2018-01-10T12:15:28.086Z,64.90
2018-01-10T12:17:56.343Z,65.60
2018-01-10T12:20:24.643Z,61.20
2018-01-10T12:22:52.934Z,58.30
2018-01-10T12:25:21.194Z,56.60
2018-01-10T12:27:49.449Z,56.20
2018-01-10T12:30:17.758Z,55.50
2018-01-10T12:32:45.997Z,57.00
2018-01-10T12:35:14.378Z,53.00
2018-01-10T12:37:42.669Z,56.20
2018-01-10T12:40:10.904Z,52.00
2018-01-10T12:42:39.144Z,48.40
2018-01-10T12:45:07.412Z,50.10
2018-01-10T12:47:35.656Z,52.40
2018-01-10T12:50:03.942Z,52.60
2018-01-10T12:52:32.229Z,54.90
2018-01-10T12:55:00.467Z,55.10
2018-01-10T12:57:29.506Z,52.70
2018-01-10T12:59:57.837Z,52.70
2018-01-10T13:02:26.838Z,55.60
2018-01-10T13:04:55.870Z,56.50
2018-01-10T13:07:24.153Z,56.50
2018-01-10T13:09:52.386Z,58.40
2018-01-10T13:12:21.518Z,59.00
2018-01-10T13:14:49.875Z,58.90
2018-01-10T13:17:18.074Z,64.10
2018-01-10T13:19:46.387Z,64.80
2018-01-10T13:22:14.845Z,64.30
2018-01-10T13:24:43.086Z,64.50
2018-01-10T13:27:11.628Z,65.50
2018-01-10T13:29:40.125Z,66.10
2018-01-10T13:32:08.568Z,68.60
2018-01-10T13:34:37.092Z,69.60
2018-01-10T13:37:05.336Z,71.30
2018-01-10T13:39:33.568Z,72.20
2018-01-10T13:42:01.817Z,73.50
2018-01-10T13:44:30.946Z,75.60
2018-01-10T13:46:59.978Z,76.00
2018-01-10T13:49:28.226Z,76.00
2018-01-10T13:51:56.590Z,76.00
2018-01-10T13:54:24.878Z,77.00
2018-01-10T13:56:53.232Z,77.10
2018-01-10T13:59:21.770Z,77.30
2018-01-10T14:01:50.101Z,76.60
2018-01-10T14:04:18.654Z,77.70
2018-01-10T14:06:46.950Z,78.20
2018-01-10T14:09:16.258Z,78.60
2018-01-10T14:11:44.543Z,79.00
2018-01-10T14:14:12.806Z,79.20
2018-01-10T14:16:41.182Z,78.90
2018-01-10T14:19:09.468Z,79.20
2018-01-10T14:21:38.244Z,79.30
2018-01-10T14:24:06.512Z,79.30
2018-01-10T14:26:35.533Z,79.60
2018-01-10T14:29:03.805Z,79.60
2018-01-10T14:31:32.052Z,80.00
2018-01-10T14:34:00.412Z,79.80
2018-01-10T14:36:28.706Z,80.20
2018-01-10T14:38:57.714Z,80.30
2018-01-10T14:41:26.714Z,81.00
2018-01-10T14:43:55.049Z,81.00
2018-01-10T14:46:23.392Z,81.00
2018-01-10T14:48:51.647Z,81.40
2018-01-10T14:51:20.726Z,79.20
2018-01-10T14:53:49.760Z,79.50
2018-01-10T14:56:17.994Z,79.50
2018-01-10T14:58:47.049Z,80.80
2018-01-10T15:01:15.426Z,80.80
2018-01-10T15:03:43.669Z,81.10
2018-01-10T15:06:12.766Z,81.50
2018-01-10T15:08:41.259Z,81.50
2018-01-10T15:11:09.646Z,82.20
2018-01-10T15:13:38.001Z,82.10
2018-01-10T15:16:06.983Z,83.10
2018-01-10T15:18:36.058Z,83.20
2018-01-10T15:21:04.318Z,83.20
2018-01-10T15:23:32.575Z,83.10
2018-01-10T15:26:00.850Z,83.30
2018-01-10T15:28:29.125Z,84.00
2018-01-10T15:30:57.357Z,83.90
2018-01-10T15:33:26.390Z,83.80
2018-01-10T15:35:54.695Z,83.80
2018-01-10T15:38:23.281Z,84.30
2018-01-10T15:40:51.538Z,84.70
2018-01-10T15:43:19.788Z,84.70
2018-01-10T15:45:48.040Z,84.60
2018-01-10T15:48:17.288Z,86.00
2018-01-10T15:50:45.562Z,86.00
2018-01-10T15:53:14.032Z,85.80
2018-01-10T15:55:42.270Z,86.20
2018-01-10T15:58:10.599Z,86.60
2018-01-10T16:00:38.890Z,86.40
2018-01-10T16:03:09.744Z,86.50
2018-01-10T16:05:37.998Z,86.80
2018-01-10T16:08:06.302Z,87.20
2018-01-10T16:10:35.327Z,87.40
2018-01-10T16:13:03.581Z,87.40
2018-01-10T16:15:32.571Z,87.70
2018-01-10T16:18:01.606Z,87.30
2018-01-10T16:20:30.009Z,87.30
2018-01-10T16:22:58.240Z,88.10
2018-01-10T16:25:26.560Z,88.50
2018-01-10T16:27:54.942Z,88.70
2018-01-10T16:30:23.202Z,89.00
2018-01-10T16:32:51.566Z,88.90
2018-01-10T16:35:19.847Z,89.10
2018-01-10T16:37:48.078Z,89.30
2018-01-10T16:40:17.070Z,90.10
2018-01-10T16:42:46.141Z,90.10
2018-01-10T16:45:14.355Z,90.10
2018-01-10T16:47:42.716Z,89.90
2018-01-10T16:50:10.974Z,89.40
2018-01-10T16:52:39.391Z,89.80
2018-01-10T16:57:36.418Z,90.40
2018-01-10T17:00:04.667Z,90.40
2018-01-10T17:02:32.894Z,90.20
2018-01-10T17:05:02.063Z,90.20
2018-01-10T17:07:30.335Z,90.20
2018-01-10T17:09:58.588Z,90.30
2018-01-10T17:12:27.039Z,90.30
2018-01-10T17:14:55.327Z,90.60
2018-01-10T17:17:23.619Z,90.70
2018-01-10T17:19:51.929Z,90.70
2018-01-10T17:22:20.163Z,90.50
2018-01-10T17:24:48.440Z,90.60
2018-01-10T17:27:16.910Z,90.70
2018-01-10T17:29:45.190Z,90.60
2018-01-10T17:32:13.423Z,90.60
2018-01-10T17:34:42.429Z,90.70
2018-01-10T17:37:10.736Z,90.70
2018-01-10T17:39:39.111Z,90.60
2018-01-10T17:42:08.339Z,90.10
2018-01-10T17:44:37.142Z,90.10
2018-01-10T17:47:05.366Z,90.00
2018-01-10T17:49:33.704Z,90.00
2018-01-10T17:52:02.054Z,90.10
2018-01-10T17:54:30.409Z,90.10
2018-01-10T17:56:59.452Z,90.40
2018-01-10T17:59:27.846Z,90.40
2018-01-10T18:01:56.877Z,90.10
2018-01-10T18:04:26.293Z,90.30
2018-01-10T18:06:54.804Z,90.10
2018-01-10T18:09:23.021Z,90.00
2018-01-10T18:11:52.104Z,90.10
2018-01-10T18:14:21.228Z,90.00
2018-01-10T18:16:49.626Z,90.00
2018-01-10T18:19:19.138Z,89.50
2018-01-10T18:21:47.582Z,89.60
2018-01-10T18:24:15.896Z,89.70
2018-01-10T18:26:45.312Z,90.00
2018-01-10T18:29:13.992Z,89.50
2018-01-10T18:31:43.326Z,89.50
2018-01-10T18:34:11.772Z,89.00
2018-01-10T18:36:40.082Z,89.30
2018-01-10T18:39:08.621Z,89.90
2018-01-10T18:41:37.079Z,89.10
2018-01-10T18:44:06.132Z,89.20
2018-01-10T18:46:34.700Z,89.20
2018-01-10T18:49:03.146Z,89.50
2018-01-10T18:51:31.943Z,89.20
2018-01-10T18:54:01.609Z,88.40
2018-01-10T18:56:30.554Z,88.40
2018-01-10T18:58:58.889Z,88.40
2018-01-10T19:01:27.173Z,88.60
2018-01-10T19:03:55.581Z,88.40
2018-01-10T19:06:23.981Z,88.70
2018-01-10T19:08:53.574Z,88.40
2018-01-10T19:11:23.878Z,88.10
2018-01-10T19:13:52.426Z,88.10
2018-01-10T19:16:21.889Z,87.80
2018-01-10T19:18:50.647Z,87.70
2018-01-10T19:21:19.167Z,87.60
2018-01-10T19:23:47.536Z,87.90
2018-01-10T19:26:16.031Z,87.90
2018-01-10T19:28:44.512Z,87.30
2018-01-10T19:31:12.852Z,87.20
2018-01-10T19:33:41.282Z,87.50
2018-01-10T19:36:09.572Z,87.60
2018-01-10T19:38:37.810Z,88.20
2018-01-10T19:41:06.448Z,87.80
2018-01-10T19:43:35.454Z,87.90
2018-01-10T19:46:03.750Z,87.90
2018-01-10T19:48:32.135Z,88.40
2018-01-10T19:51:01.850Z,87.40
2018-01-10T19:53:32.190Z,87.70
2018-01-10T19:56:00.536Z,87.70
2018-01-10T19:58:29.850Z,87.60
2018-01-10T20:00:59.260Z,87.20
2018-01-10T20:03:27.620Z,87.20
2018-01-10T20:05:56.043Z,87.20
2018-01-10T20:08:25.404Z,87.30
2018-01-10T20:10:55.156Z,87.50
2018-01-10T20:13:24.215Z,87.10
2018-01-10T20:15:53.418Z,87.20
2018-01-10T20:18:21.720Z,87.10
2018-01-10T20:20:51.293Z,86.70
2018-01-10T20:23:21.632Z,86.20
2018-01-10T20:25:50.335Z,86.20
2018-01-10T20:28:19.354Z,85.70
2018-01-10T20:30:47.702Z,85.80
2018-01-10T20:33:16.015Z,86.00
2018-01-10T20:35:45.440Z,86.10
2018-01-10T20:38:15.284Z,86.50
2018-01-10T20:40:45.689Z,86.90
2018-01-10T20:43:14.975Z,86.80
2018-01-10T20:45:43.307Z,86.70
2018-01-10T20:48:11.597Z,86.90
2018-01-10T20:50:39.844Z,86.90
2018-01-10T20:53:08.268Z,87.40
2018-01-10T20:55:36.511Z,87.60
2018-01-10T20:58:04.754Z,87.30
2018-01-10T21:00:33.000Z,87.10
2018-01-10T21:03:02.570Z,87.70
2018-01-10T21:05:30.939Z,87.70
2018-01-10T21:07:59.266Z,87.60
2018-01-10T21:10:27.552Z,87.80
2018-01-10T21:12:55.830Z,87.50
2018-01-10T21:15:24.082Z,87.90
2018-01-10T21:17:53.111Z,88.40
2018-01-10T21:20:21.632Z,88.40
2018-01-10T21:22:50.154Z,87.90
2018-01-10T21:25:18.526Z,87.90
2018-01-10T21:27:47.618Z,88.50
2018-01-10T21:30:16.722Z,88.70
2018-01-10T21:32:46.146Z,88.70
2018-01-10T21:35:14.551Z,88.70
2018-01-10T21:37:43.584Z,88.60
2018-01-10T21:40:11.833Z,88.50
2018-01-10T21:42:40.144Z,88.70
2018-01-10T21:45:08.407Z,88.60
2018-01-10T21:47:36.704Z,88.70
2018-01-10T21:50:04.923Z,88.50
2018-01-10T21:52:33.903Z,88.20
2018-01-10T21:55:03.171Z,87.70
2018-01-10T21:57:31.447Z,87.60
2018-01-10T21:59:59.727Z,87.60
2018-01-10T22:02:28.003Z,88.50
2018-01-10T22:04:56.270Z,88.30
2018-01-10T22:07:24.514Z,88.50
2018-01-10T22:09:52.809Z,88.70
2018-01-10T22:12:21.026Z,89.30
2018-01-10T22:14:49.358Z,88.80
2018-01-10T22:17:17.663Z,89.00
2018-01-10T22:19:45.903Z,89.20
2018-01-10T22:22:14.170Z,89.20
2018-01-10T22:24:42.518Z,89.40
2018-01-10T22:27:10.821Z,89.40
2018-01-10T22:29:39.827Z,89.50
2018-01-10T22:32:08.106Z,89.50
2018-01-10T22:34:36.401Z,89.40
2018-01-10T22:37:04.718Z,89.60
2018-01-10T22:39:34.266Z,89.80
2018-01-10T22:42:03.151Z,89.60
2018-01-10T22:44:31.445Z,89.80
2018-01-10T22:46:59.747Z,90.00
2018-01-10T22:49:27.983Z,90.00
2018-01-10T22:51:56.215Z,89.80
2018-01-10T22:54:24.489Z,89.90
2018-01-10T22:56:52.710Z,90.00
2018-01-10T22:59:20.939Z,90.00
2018-01-10T23:01:49.222Z,89.90
2018-01-10T23:04:17.458Z,90.00
2018-01-10T23:06:45.906Z,89.90
2018-01-10T23:09:14.226Z,89.80
2018-01-10T23:11:42.475Z,89.60
2018-01-10T23:14:10.717Z,90.00
2018-01-10T23:16:39.794Z,89.80
2018-01-10T23:19:08.023Z,89.80
2018-01-10T23:21:36.261Z,89.40
2018-01-10T23:24:04.586Z,89.40
2018-01-10T23:26:32.816Z,89.20
2018-01-10T23:29:01.938Z,89.20
2018-01-10T23:31:30.199Z,89.20
2018-01-10T23:33:59.183Z,89.40
2018-01-10T23:36:28.174Z,89.20
2018-01-10T23:38:56.496Z,89.20
2018-01-10T23:41:24.813Z,89.30
2018-01-10T23:43:53.356Z,89.10
2018-01-10T23:46:21.650Z,89.50
2018-01-10T23:48:49.966Z,89.50
2018-01-10T23:51:18.958Z,89.10
2018-01-10T23:53:48.034Z,89.60
2018-01-10T23:56:16.297Z,89.20
2018-01-10T23:58:44.545Z,89.30
